sensor_id;sensor_type;location;lat;lon;timestamp;P1;durP1;ratioP1;P2;durP2;ratioP2
20671;SDS011;10495;50.922;4.760;2022-11-20T00:01:39;33.90;;;20.50;;
20671;SDS011;10495;50.922;4.760;2022-11-20T00:04:05;28.63;;;18.53;;
20671;SDS011;10495;50.922;4.760;2022-11-20T00:06:31;28.33;;;16.87;;
20671;SDS011;10495;50.922;4.760;2022-11-20T00:08:57;29.33;;;17.67;;
20671;SDS011;10495;50.922;4.760;2022-11-20T00:11:25;27.80;;;18.00;;
20671;SDS011;10495;50.922;4.760;2022-11-20T00:13:53;30.10;;;18.73;;
20671;SDS011;10495;50.922;4.760;2022-11-20T00:16:22;32.93;;;19.20;;
20671;SDS011;10495;50.922;4.760;2022-11-20T00:18:49;29.53;;;18.23;;
20671;SDS011;10495;50.922;4.760;2022-11-20T00:21:19;33.03;;;19.57;;
20671;SDS011;10495;50.922;4.760;2022-11-20T00:23:46;29.43;;;18.17;;
20671;SDS011;10495;50.922;4.760;2022-11-20T00:26:13;32.40;;;19.60;;
20671;SDS011;10495;50.922;4.760;2022-11-20T00:28:41;27.47;;;16.97;;
20671;SDS011;10495;50.922;4.760;2022-11-20T00:31:09;27.40;;;16.90;;
20671;SDS011;10495;50.922;4.760;2022-11-20T00:33:39;28.37;;;17.60;;
20671;SDS011;10495;50.922;4.760;2022-11-20T00:36:06;27.77;;;17.43;;
20671;SDS011;10495;50.922;4.760;2022-11-20T00:38:33;28.93;;;18.20;;
20671;SDS011;10495;50.922;4.760;2022-11-20T00:41:00;29.20;;;18.37;;
20671;SDS011;10495;50.922;4.760;2022-11-20T00:43:27;30.83;;;19.03;;
20671;SDS011;10495;50.922;4.760;2022-11-20T00:45:57;33.53;;;19.07;;
20671;SDS011;10495;50.922;4.760;2022-11-20T00:48:23;30.80;;;17.97;;
20671;SDS011;10495;50.922;4.760;2022-11-20T00:50:49;27.60;;;17.77;;
20671;SDS011;10495;50.922;4.760;2022-11-20T00:53:15;30.13;;;18.57;;
20671;SDS011;10495;50.922;4.760;2022-11-20T00:55:40;30.57;;;19.33;;
20671;SDS011;10495;50.922;4.760;2022-11-20T00:58:06;28.83;;;18.50;;
20671;SDS011;10495;50.922;4.760;2022-11-20T01:00:31;28.37;;;17.57;;
20671;SDS011;10495;50.922;4.760;2022-11-20T01:02:57;26.97;;;17.17;;
20671;SDS011;10495;50.922;4.760;2022-11-20T01:05:23;26.40;;;16.70;;
20671;SDS011;10495;50.922;4.760;2022-11-20T01:07:48;26.77;;;18.03;;
20671;SDS011;10495;50.922;4.760;2022-11-20T01:10:14;25.50;;;15.87;;
20671;SDS011;10495;50.922;4.760;2022-11-20T01:12:39;27.63;;;17.10;;
20671;SDS011;10495;50.922;4.760;2022-11-20T01:15:05;26.83;;;17.60;;
20671;SDS011;10495;50.922;4.760;2022-11-20T01:17:31;28.20;;;17.87;;
20671;SDS011;10495;50.922;4.760;2022-11-20T01:19:57;28.17;;;18.30;;
20671;SDS011;10495;50.922;4.760;2022-11-20T01:22:22;25.37;;;16.13;;
20671;SDS011;10495;50.922;4.760;2022-11-20T01:24:48;27.70;;;17.80;;
20671;SDS011;10495;50.922;4.760;2022-11-20T01:27:14;26.87;;;18.23;;
20671;SDS011;10495;50.922;4.760;2022-11-20T01:29:39;26.97;;;17.67;;
20671;SDS011;10495;50.922;4.760;2022-11-20T01:32:05;28.00;;;17.07;;
20671;SDS011;10495;50.922;4.760;2022-11-20T01:34:30;26.70;;;16.33;;
20671;SDS011;10495;50.922;4.760;2022-11-20T01:36:56;24.80;;;15.83;;
20671;SDS011;10495;50.922;4.760;2022-11-20T01:39:23;29.53;;;17.73;;
20671;SDS011;10495;50.922;4.760;2022-11-20T01:41:50;30.70;;;17.03;;
20671;SDS011;10495;50.922;4.760;2022-11-20T01:47:16;29.23;;;18.73;;
20671;SDS011;10495;50.922;4.760;2022-11-20T01:52:27;30.37;;;18.87;;
20671;SDS011;10495;50.922;4.760;2022-11-20T01:55:03;27.43;;;18.07;;
20671;SDS011;10495;50.922;4.760;2022-11-20T01:57:30;27.47;;;17.60;;
20671;SDS011;10495;50.922;4.760;2022-11-20T02:00:00;28.37;;;18.70;;
20671;SDS011;10495;50.922;4.760;2022-11-20T02:02:35;28.03;;;17.63;;
20671;SDS011;10495;50.922;4.760;2022-11-20T02:05:04;31.87;;;19.03;;
20671;SDS011;10495;50.922;4.760;2022-11-20T02:07:55;27.47;;;17.23;;
20671;SDS011;10495;50.922;4.760;2022-11-20T02:10:22;29.30;;;17.57;;
20671;SDS011;10495;50.922;4.760;2022-11-20T02:12:48;31.87;;;19.70;;
20671;SDS011;10495;50.922;4.760;2022-11-20T02:15:32;29.13;;;18.57;;
20671;SDS011;10495;50.922;4.760;2022-11-20T02:17:58;31.03;;;19.23;;
20671;SDS011;10495;50.922;4.760;2022-11-20T02:20:24;29.90;;;17.97;;
20671;SDS011;10495;50.922;4.760;2022-11-20T02:23:01;30.70;;;19.43;;
20671;SDS011;10495;50.922;4.760;2022-11-20T02:25:33;33.43;;;18.73;;
20671;SDS011;10495;50.922;4.760;2022-11-20T02:28:02;32.23;;;19.33;;
20671;SDS011;10495;50.922;4.760;2022-11-20T02:30:28;30.93;;;18.90;;
20671;SDS011;10495;50.922;4.760;2022-11-20T02:32:53;30.03;;;18.37;;
20671;SDS011;10495;50.922;4.760;2022-11-20T02:37:44;31.67;;;20.13;;
20671;SDS011;10495;50.922;4.760;2022-11-20T02:40:13;34.30;;;18.93;;
20671;SDS011;10495;50.922;4.760;2022-11-20T02:42:39;28.43;;;18.20;;
20671;SDS011;10495;50.922;4.760;2022-11-20T02:45:05;37.97;;;21.07;;
20671;SDS011;10495;50.922;4.760;2022-11-20T02:47:31;33.83;;;19.80;;
20671;SDS011;10495;50.922;4.760;2022-11-20T02:49:56;35.17;;;21.50;;
20671;SDS011;10495;50.922;4.760;2022-11-20T02:52:22;36.47;;;19.53;;
20671;SDS011;10495;50.922;4.760;2022-11-20T02:54:48;33.40;;;20.30;;
20671;SDS011;10495;50.922;4.760;2022-11-20T02:57:13;31.97;;;21.30;;
20671;SDS011;10495;50.922;4.760;2022-11-20T02:59:39;30.23;;;18.80;;
20671;SDS011;10495;50.922;4.760;2022-11-20T03:02:05;35.13;;;20.67;;
20671;SDS011;10495;50.922;4.760;2022-11-20T03:04:30;35.00;;;20.37;;
20671;SDS011;10495;50.922;4.760;2022-11-20T03:06:56;35.50;;;21.03;;
20671;SDS011;10495;50.922;4.760;2022-11-20T03:09:21;34.00;;;19.93;;
20671;SDS011;10495;50.922;4.760;2022-11-20T03:11:47;40.07;;;23.10;;
20671;SDS011;10495;50.922;4.760;2022-11-20T03:14:13;31.70;;;19.43;;
20671;SDS011;10495;50.922;4.760;2022-11-20T03:16:39;34.70;;;19.83;;
20671;SDS011;10495;50.922;4.760;2022-11-20T03:19:04;33.90;;;19.50;;
20671;SDS011;10495;50.922;4.760;2022-11-20T03:21:30;39.83;;;20.40;;
20671;SDS011;10495;50.922;4.760;2022-11-20T03:23:58;35.43;;;20.73;;
20671;SDS011;10495;50.922;4.760;2022-11-20T03:26:24;35.83;;;20.10;;
20671;SDS011;10495;50.922;4.760;2022-11-20T03:31:21;38.43;;;21.60;;
20671;SDS011;10495;50.922;4.760;2022-11-20T03:33:48;36.83;;;21.53;;
20671;SDS011;10495;50.922;4.760;2022-11-20T03:36:14;37.83;;;21.97;;
20671;SDS011;10495;50.922;4.760;2022-11-20T03:38:41;44.23;;;23.60;;
20671;SDS011;10495;50.922;4.760;2022-11-20T03:41:11;33.90;;;21.27;;
20671;SDS011;10495;50.922;4.760;2022-11-20T03:43:38;38.00;;;19.37;;
20671;SDS011;10495;50.922;4.760;2022-11-20T03:46:04;37.73;;;22.90;;
20671;SDS011;10495;50.922;4.760;2022-11-20T03:48:30;47.23;;;24.10;;
20671;SDS011;10495;50.922;4.760;2022-11-20T03:53:37;42.67;;;22.63;;
20671;SDS011;10495;50.922;4.760;2022-11-20T03:56:03;47.50;;;24.97;;
20671;SDS011;10495;50.922;4.760;2022-11-20T03:58:29;43.00;;;23.93;;
20671;SDS011;10495;50.922;4.760;2022-11-20T04:00:55;42.63;;;22.07;;
20671;SDS011;10495;50.922;4.760;2022-11-20T04:03:21;40.80;;;23.03;;
20671;SDS011;10495;50.922;4.760;2022-11-20T04:05:46;49.47;;;24.67;;
20671;SDS011;10495;50.922;4.760;2022-11-20T04:08:12;43.73;;;24.00;;
20671;SDS011;10495;50.922;4.760;2022-11-20T04:10:37;46.73;;;24.93;;
20671;SDS011;10495;50.922;4.760;2022-11-20T04:13:03;47.43;;;24.13;;
20671;SDS011;10495;50.922;4.760;2022-11-20T04:15:28;46.77;;;25.00;;
20671;SDS011;10495;50.922;4.760;2022-11-20T04:17:54;47.90;;;24.27;;
20671;SDS011;10495;50.922;4.760;2022-11-20T04:20:20;45.33;;;22.73;;
20671;SDS011;10495;50.922;4.760;2022-11-20T04:22:46;40.53;;;22.67;;
20671;SDS011;10495;50.922;4.760;2022-11-20T04:25:11;40.87;;;22.80;;
20671;SDS011;10495;50.922;4.760;2022-11-20T04:27:37;37.20;;;21.70;;
20671;SDS011;10495;50.922;4.760;2022-11-20T04:30:03;38.53;;;21.30;;
20671;SDS011;10495;50.922;4.760;2022-11-20T04:32:29;39.93;;;21.40;;
20671;SDS011;10495;50.922;4.760;2022-11-20T04:34:55;47.47;;;23.53;;
20671;SDS011;10495;50.922;4.760;2022-11-20T04:37:20;47.13;;;25.30;;
20671;SDS011;10495;50.922;4.760;2022-11-20T04:39:46;42.30;;;22.17;;
20671;SDS011;10495;50.922;4.760;2022-11-20T04:42:11;43.87;;;23.30;;
20671;SDS011;10495;50.922;4.760;2022-11-20T04:44:55;40.20;;;22.90;;
20671;SDS011;10495;50.922;4.760;2022-11-20T04:47:21;44.60;;;23.07;;
20671;SDS011;10495;50.922;4.760;2022-11-20T04:49:47;44.07;;;23.20;;
20671;SDS011;10495;50.922;4.760;2022-11-20T04:52:13;39.23;;;22.00;;
20671;SDS011;10495;50.922;4.760;2022-11-20T04:54:39;46.63;;;25.63;;
20671;SDS011;10495;50.922;4.760;2022-11-20T04:57:04;49.80;;;25.27;;
20671;SDS011;10495;50.922;4.760;2022-11-20T04:59:30;52.37;;;25.30;;
20671;SDS011;10495;50.922;4.760;2022-11-20T05:01:55;49.77;;;25.20;;
20671;SDS011;10495;50.922;4.760;2022-11-20T05:04:21;41.57;;;21.40;;
20671;SDS011;10495;50.922;4.760;2022-11-20T05:06:46;38.87;;;20.87;;
20671;SDS011;10495;50.922;4.760;2022-11-20T05:09:12;37.47;;;20.43;;
20671;SDS011;10495;50.922;4.760;2022-11-20T05:11:38;36.97;;;21.70;;
20671;SDS011;10495;50.922;4.760;2022-11-20T05:14:03;41.73;;;22.87;;
20671;SDS011;10495;50.922;4.760;2022-11-20T05:16:29;41.23;;;21.77;;
20671;SDS011;10495;50.922;4.760;2022-11-20T05:18:55;35.17;;;20.93;;
20671;SDS011;10495;50.922;4.760;2022-11-20T05:21:21;41.43;;;21.73;;
20671;SDS011;10495;50.922;4.760;2022-11-20T05:23:47;45.07;;;22.60;;
20671;SDS011;10495;50.922;4.760;2022-11-20T05:26:14;47.47;;;21.90;;
20671;SDS011;10495;50.922;4.760;2022-11-20T05:28:41;39.13;;;20.77;;
20671;SDS011;10495;50.922;4.760;2022-11-20T05:31:08;41.00;;;21.23;;
20671;SDS011;10495;50.922;4.760;2022-11-20T05:33:35;42.07;;;22.67;;
20671;SDS011;10495;50.922;4.760;2022-11-20T05:36:01;46.73;;;22.87;;
20671;SDS011;10495;50.922;4.760;2022-11-20T05:38:28;47.43;;;22.53;;
20671;SDS011;10495;50.922;4.760;2022-11-20T05:40:54;44.00;;;22.67;;
20671;SDS011;10495;50.922;4.760;2022-11-20T05:43:19;43.20;;;22.20;;
20671;SDS011;10495;50.922;4.760;2022-11-20T05:45:52;42.03;;;21.40;;
20671;SDS011;10495;50.922;4.760;2022-11-20T05:48:18;44.50;;;22.57;;
20671;SDS011;10495;50.922;4.760;2022-11-20T05:50:44;43.13;;;22.17;;
20671;SDS011;10495;50.922;4.760;2022-11-20T05:53:10;41.13;;;21.27;;
20671;SDS011;10495;50.922;4.760;2022-11-20T05:55:35;40.57;;;21.20;;
20671;SDS011;10495;50.922;4.760;2022-11-20T05:58:01;44.93;;;23.80;;
20671;SDS011;10495;50.922;4.760;2022-11-20T06:00:26;47.43;;;25.23;;
20671;SDS011;10495;50.922;4.760;2022-11-20T06:02:52;51.10;;;25.87;;
20671;SDS011;10495;50.922;4.760;2022-11-20T06:05:17;48.03;;;24.17;;
20671;SDS011;10495;50.922;4.760;2022-11-20T06:07:43;52.80;;;25.97;;
20671;SDS011;10495;50.922;4.760;2022-11-20T06:10:08;55.00;;;25.87;;
20671;SDS011;10495;50.922;4.760;2022-11-20T06:12:34;54.73;;;27.07;;
20671;SDS011;10495;50.922;4.760;2022-11-20T06:15:00;55.10;;;26.03;;
20671;SDS011;10495;50.922;4.760;2022-11-20T06:17:26;45.53;;;24.23;;
20671;SDS011;10495;50.922;4.760;2022-11-20T06:19:51;43.13;;;21.90;;
20671;SDS011;10495;50.922;4.760;2022-11-20T06:22:17;40.87;;;23.03;;
20671;SDS011;10495;50.922;4.760;2022-11-20T06:24:42;42.30;;;21.93;;
20671;SDS011;10495;50.922;4.760;2022-11-20T06:27:08;41.53;;;21.80;;
20671;SDS011;10495;50.922;4.760;2022-11-20T06:29:33;41.10;;;21.27;;
20671;SDS011;10495;50.922;4.760;2022-11-20T06:31:59;36.03;;;20.33;;
20671;SDS011;10495;50.922;4.760;2022-11-20T06:34:25;36.03;;;18.30;;
20671;SDS011;10495;50.922;4.760;2022-11-20T06:36:51;44.30;;;23.73;;
20671;SDS011;10495;50.922;4.760;2022-11-20T06:39:17;38.27;;;21.03;;
20671;SDS011;10495;50.922;4.760;2022-11-20T06:41:42;37.03;;;20.10;;
20671;SDS011;10495;50.922;4.760;2022-11-20T06:44:08;41.10;;;21.83;;
20671;SDS011;10495;50.922;4.760;2022-11-20T06:46:33;40.07;;;21.00;;
20671;SDS011;10495;50.922;4.760;2022-11-20T06:48:59;41.27;;;19.47;;
20671;SDS011;10495;50.922;4.760;2022-11-20T06:51:24;40.03;;;20.83;;
20671;SDS011;10495;50.922;4.760;2022-11-20T06:53:50;39.43;;;19.87;;
20671;SDS011;10495;50.922;4.760;2022-11-20T06:56:16;39.93;;;21.33;;
20671;SDS011;10495;50.922;4.760;2022-11-20T06:58:41;37.30;;;21.07;;
20671;SDS011;10495;50.922;4.760;2022-11-20T07:01:08;35.33;;;21.13;;
20671;SDS011;10495;50.922;4.760;2022-11-20T07:03:36;43.13;;;21.07;;
20671;SDS011;10495;50.922;4.760;2022-11-20T07:06:02;43.00;;;21.33;;
20671;SDS011;10495;50.922;4.760;2022-11-20T07:08:29;33.57;;;19.50;;
20671;SDS011;10495;50.922;4.760;2022-11-20T07:11:02;33.43;;;18.53;;
20671;SDS011;10495;50.922;4.760;2022-11-20T07:13:29;37.43;;;19.43;;
20671;SDS011;10495;50.922;4.760;2022-11-20T07:15:58;38.70;;;20.97;;
20671;SDS011;10495;50.922;4.760;2022-11-20T07:18:28;34.83;;;19.13;;
20671;SDS011;10495;50.922;4.760;2022-11-20T07:20:54;33.57;;;18.87;;
20671;SDS011;10495;50.922;4.760;2022-11-20T07:23:20;33.17;;;17.73;;
20671;SDS011;10495;50.922;4.760;2022-11-20T07:25:45;43.00;;;22.43;;
20671;SDS011;10495;50.922;4.760;2022-11-20T07:28:11;37.23;;;19.57;;
20671;SDS011;10495;50.922;4.760;2022-11-20T07:30:36;48.70;;;21.90;;
20671;SDS011;10495;50.922;4.760;2022-11-20T07:33:02;47.87;;;21.77;;
20671;SDS011;10495;50.922;4.760;2022-11-20T07:35:28;39.33;;;20.20;;
20671;SDS011;10495;50.922;4.760;2022-11-20T07:37:53;43.40;;;20.07;;
20671;SDS011;10495;50.922;4.760;2022-11-20T07:40:19;48.63;;;20.03;;
20671;SDS011;10495;50.922;4.760;2022-11-20T07:42:51;47.10;;;21.37;;
20671;SDS011;10495;50.922;4.760;2022-11-20T07:45:18;49.83;;;21.57;;
20671;SDS011;10495;50.922;4.760;2022-11-20T07:47:45;54.77;;;22.07;;
20671;SDS011;10495;50.922;4.760;2022-11-20T07:50:11;50.37;;;22.07;;
20671;SDS011;10495;50.922;4.760;2022-11-20T07:52:37;52.77;;;21.30;;
20671;SDS011;10495;50.922;4.760;2022-11-20T07:55:03;54.27;;;22.27;;
20671;SDS011;10495;50.922;4.760;2022-11-20T07:57:30;51.87;;;21.13;;
20671;SDS011;10495;50.922;4.760;2022-11-20T07:59:55;49.03;;;20.70;;
20671;SDS011;10495;50.922;4.760;2022-11-20T08:02:21;58.00;;;23.27;;
20671;SDS011;10495;50.922;4.760;2022-11-20T08:04:47;49.87;;;22.43;;
20671;SDS011;10495;50.922;4.760;2022-11-20T08:07:12;43.77;;;20.47;;
20671;SDS011;10495;50.922;4.760;2022-11-20T08:09:38;54.17;;;22.10;;
20671;SDS011;10495;50.922;4.760;2022-11-20T08:12:03;57.73;;;22.73;;
20671;SDS011;10495;50.922;4.760;2022-11-20T08:14:47;62.17;;;25.20;;
20671;SDS011;10495;50.922;4.760;2022-11-20T08:17:13;54.40;;;22.17;;
20671;SDS011;10495;50.922;4.760;2022-11-20T08:19:38;58.80;;;23.33;;
20671;SDS011;10495;50.922;4.760;2022-11-20T08:22:04;54.43;;;22.10;;
20671;SDS011;10495;50.922;4.760;2022-11-20T08:24:29;61.00;;;23.53;;
20671;SDS011;10495;50.922;4.760;2022-11-20T08:26:57;63.03;;;23.13;;
20671;SDS011;10495;50.922;4.760;2022-11-20T08:29:24;56.17;;;22.73;;
20671;SDS011;10495;50.922;4.760;2022-11-20T08:31:50;52.00;;;22.73;;
20671;SDS011;10495;50.922;4.760;2022-11-20T08:34:16;57.67;;;23.50;;
20671;SDS011;10495;50.922;4.760;2022-11-20T08:36:41;59.80;;;24.10;;
20671;SDS011;10495;50.922;4.760;2022-11-20T08:39:07;63.70;;;24.73;;
20671;SDS011;10495;50.922;4.760;2022-11-20T08:41:32;57.97;;;23.23;;
20671;SDS011;10495;50.922;4.760;2022-11-20T08:43:59;51.10;;;22.33;;
20671;SDS011;10495;50.922;4.760;2022-11-20T08:46:28;62.50;;;23.80;;
20671;SDS011;10495;50.922;4.760;2022-11-20T08:49:04;54.53;;;23.07;;
20671;SDS011;10495;50.922;4.760;2022-11-20T08:51:31;68.73;;;27.03;;
20671;SDS011;10495;50.922;4.760;2022-11-20T08:53:56;63.37;;;24.87;;
20671;SDS011;10495;50.922;4.760;2022-11-20T08:56:22;65.37;;;24.77;;
20671;SDS011;10495;50.922;4.760;2022-11-20T08:58:49;64.83;;;23.33;;
20671;SDS011;10495;50.922;4.760;2022-11-20T09:01:16;64.37;;;24.97;;
20671;SDS011;10495;50.922;4.760;2022-11-20T09:03:41;60.53;;;22.53;;
20671;SDS011;10495;50.922;4.760;2022-11-20T09:06:07;66.43;;;25.23;;
20671;SDS011;10495;50.922;4.760;2022-11-20T09:08:33;65.00;;;24.73;;
20671;SDS011;10495;50.922;4.760;2022-11-20T09:11:00;64.93;;;24.37;;
20671;SDS011;10495;50.922;4.760;2022-11-20T09:13:26;61.37;;;23.33;;
20671;SDS011;10495;50.922;4.760;2022-11-20T09:15:56;50.87;;;22.30;;
20671;SDS011;10495;50.922;4.760;2022-11-20T09:18:24;61.67;;;23.03;;
20671;SDS011;10495;50.922;4.760;2022-11-20T09:20:50;54.80;;;21.97;;
20671;SDS011;10495;50.922;4.760;2022-11-20T09:23:16;58.00;;;21.73;;
20671;SDS011;10495;50.922;4.760;2022-11-20T09:25:42;60.00;;;22.20;;
20671;SDS011;10495;50.922;4.760;2022-11-20T09:28:08;61.63;;;23.77;;
20671;SDS011;10495;50.922;4.760;2022-11-20T09:30:34;58.97;;;25.33;;
20671;SDS011;10495;50.922;4.760;2022-11-20T09:33:00;59.80;;;23.17;;
20671;SDS011;10495;50.922;4.760;2022-11-20T09:35:25;68.13;;;23.93;;
20671;SDS011;10495;50.922;4.760;2022-11-20T09:37:51;51.93;;;22.00;;
20671;SDS011;10495;50.922;4.760;2022-11-20T09:42:50;60.97;;;21.83;;
20671;SDS011;10495;50.922;4.760;2022-11-20T09:56:51;51.87;;;21.93;;
20671;SDS011;10495;50.922;4.760;2022-11-20T09:59:31;44.77;;;19.67;;
20671;SDS011;10495;50.922;4.760;2022-11-20T10:02:08;44.57;;;19.13;;
20671;SDS011;10495;50.922;4.760;2022-11-20T10:04:43;42.63;;;19.93;;
20671;SDS011;10495;50.922;4.760;2022-11-20T10:10:31;40.73;;;18.10;;
20671;SDS011;10495;50.922;4.760;2022-11-20T10:18:54;35.17;;;15.80;;
20671;SDS011;10495;50.922;4.760;2022-11-20T10:26:57;44.47;;;17.07;;
20671;SDS011;10495;50.922;4.760;2022-11-20T10:29:45;48.90;;;23.63;;
20671;SDS011;10495;50.922;4.760;2022-11-20T10:32:20;44.43;;;22.77;;
20671;SDS011;10495;50.922;4.760;2022-11-20T10:35:00;37.13;;;18.03;;
20671;SDS011;10495;50.922;4.760;2022-11-20T10:37:29;35.43;;;18.23;;
20671;SDS011;10495;50.922;4.760;2022-11-20T10:42:54;35.57;;;16.10;;
20671;SDS011;10495;50.922;4.760;2022-11-20T10:47:52;43.07;;;17.07;;
20671;SDS011;10495;50.922;4.760;2022-11-20T10:50:21;36.27;;;17.50;;
20671;SDS011;10495;50.922;4.760;2022-11-20T10:55:43;37.23;;;16.80;;
20671;SDS011;10495;50.922;4.760;2022-11-20T10:58:57;31.97;;;15.63;;
20671;SDS011;10495;50.922;4.760;2022-11-20T11:01:18;32.90;;;16.20;;
20671;SDS011;10495;50.922;4.760;2022-11-20T11:03:48;34.07;;;15.63;;
20671;SDS011;10495;50.922;4.760;2022-11-20T11:06:24;33.37;;;14.80;;
20671;SDS011;10495;50.922;4.760;2022-11-20T11:09:10;31.00;;;15.23;;
20671;SDS011;10495;50.922;4.760;2022-11-20T11:11:41;26.17;;;14.03;;
20671;SDS011;10495;50.922;4.760;2022-11-20T11:14:07;24.30;;;13.40;;
20671;SDS011;10495;50.922;4.760;2022-11-20T11:16:40;28.10;;;13.97;;
20671;SDS011;10495;50.922;4.760;2022-11-20T11:19:21;27.20;;;13.53;;
20671;SDS011;10495;50.922;4.760;2022-11-20T11:21:49;32.03;;;15.47;;
20671;SDS011;10495;50.922;4.760;2022-11-20T11:26:52;25.37;;;13.33;;
20671;SDS011;10495;50.922;4.760;2022-11-20T11:29:30;39.10;;;18.63;;
20671;SDS011;10495;50.922;4.760;2022-11-20T11:32:06;22.33;;;10.67;;
20671;SDS011;10495;50.922;4.760;2022-11-20T11:34:34;17.50;;;9.70;;
20671;SDS011;10495;50.922;4.760;2022-11-20T11:37:00;17.77;;;9.50;;
20671;SDS011;10495;50.922;4.760;2022-11-20T11:39:28;13.77;;;9.40;;
20671;SDS011;10495;50.922;4.760;2022-11-20T11:41:55;12.10;;;7.03;;
20671;SDS011;10495;50.922;4.760;2022-11-20T11:44:24;12.37;;;6.50;;
20671;SDS011;10495;50.922;4.760;2022-11-20T11:49:45;12.80;;;6.77;;
20671;SDS011;10495;50.922;4.760;2022-11-20T11:52:17;8.03;;;5.37;;
20671;SDS011;10495;50.922;4.760;2022-11-20T11:54:50;10.10;;;5.80;;
20671;SDS011;10495;50.922;4.760;2022-11-20T11:57:29;8.63;;;5.77;;
20671;SDS011;10495;50.922;4.760;2022-11-20T12:00:15;12.10;;;5.37;;
20671;SDS011;10495;50.922;4.760;2022-11-20T12:05:30;9.07;;;4.57;;
20671;SDS011;10495;50.922;4.760;2022-11-20T12:10:50;4.83;;;3.70;;
20671;SDS011;10495;50.922;4.760;2022-11-20T12:15:59;8.67;;;4.37;;
20671;SDS011;10495;50.922;4.760;2022-11-20T12:18:26;6.27;;;4.10;;
20671;SDS011;10495;50.922;4.760;2022-11-20T12:23:35;7.80;;;3.70;;
20671;SDS011;10495;50.922;4.760;2022-11-20T12:26:11;6.63;;;4.17;;
20671;SDS011;10495;50.922;4.760;2022-11-20T12:29:14;3.60;;;2.80;;
20671;SDS011;10495;50.922;4.760;2022-11-20T12:37:15;7.40;;;3.37;;
20671;SDS011;10495;50.922;4.760;2022-11-20T12:39:48;5.43;;;2.93;;
20671;SDS011;10495;50.922;4.760;2022-11-20T12:42:26;3.53;;;2.50;;
20671;SDS011;10495;50.922;4.760;2022-11-20T12:45:27;3.50;;;2.77;;
20671;SDS011;10495;50.922;4.760;2022-11-20T12:54:00;4.07;;;2.80;;
20671;SDS011;10495;50.922;4.760;2022-11-20T12:56:11;6.33;;;3.20;;
20671;SDS011;10495;50.922;4.760;2022-11-20T13:01:39;4.83;;;2.53;;
20671;SDS011;10495;50.922;4.760;2022-11-20T13:07:02;5.47;;;3.30;;
20671;SDS011;10495;50.922;4.760;2022-11-20T13:09:31;7.27;;;3.50;;
20671;SDS011;10495;50.922;4.760;2022-11-20T13:12:05;5.33;;;3.10;;
20671;SDS011;10495;50.922;4.760;2022-11-20T13:14:56;7.10;;;2.73;;
20671;SDS011;10495;50.922;4.760;2022-11-20T13:17:43;9.77;;;4.13;;
20671;SDS011;10495;50.922;4.760;2022-11-20T13:20:25;5.80;;;4.00;;
20671;SDS011;10495;50.922;4.760;2022-11-20T13:22:52;9.50;;;4.37;;
20671;SDS011;10495;50.922;4.760;2022-11-20T13:25:23;9.63;;;4.33;;
20671;SDS011;10495;50.922;4.760;2022-11-20T13:27:53;15.43;;;7.37;;
20671;SDS011;10495;50.922;4.760;2022-11-20T13:30:21;9.10;;;6.90;;
20671;SDS011;10495;50.922;4.760;2022-11-20T13:32:54;5.43;;;3.90;;
20671;SDS011;10495;50.922;4.760;2022-11-20T13:35:37;7.17;;;3.87;;
20671;SDS011;10495;50.922;4.760;2022-11-20T13:38:11;7.07;;;3.80;;
20671;SDS011;10495;50.922;4.760;2022-11-20T13:45:58;7.97;;;4.00;;
20671;SDS011;10495;50.922;4.760;2022-11-20T13:48:38;7.27;;;3.77;;
20671;SDS011;10495;50.922;4.760;2022-11-20T13:51:21;8.33;;;3.60;;
20671;SDS011;10495;50.922;4.760;2022-11-20T13:54:29;7.03;;;5.10;;
20671;SDS011;10495;50.922;4.760;2022-11-20T13:57:25;9.10;;;4.10;;
20671;SDS011;10495;50.922;4.760;2022-11-20T14:00:19;5.30;;;3.50;;
20671;SDS011;10495;50.922;4.760;2022-11-20T14:02:57;6.17;;;3.60;;
20671;SDS011;10495;50.922;4.760;2022-11-20T14:05:35;4.80;;;3.67;;
20671;SDS011;10495;50.922;4.760;2022-11-20T14:08:04;6.27;;;3.83;;
20671;SDS011;10495;50.922;4.760;2022-11-20T14:10:32;5.60;;;3.07;;
20671;SDS011;10495;50.922;4.760;2022-11-20T14:12:57;5.90;;;3.37;;
20671;SDS011;10495;50.922;4.760;2022-11-20T14:15:30;6.40;;;3.67;;
20671;SDS011;10495;50.922;4.760;2022-11-20T14:17:57;12.27;;;7.50;;
20671;SDS011;10495;50.922;4.760;2022-11-20T14:20:25;6.77;;;3.40;;
20671;SDS011;10495;50.922;4.760;2022-11-20T14:22:53;3.40;;;2.57;;
20671;SDS011;10495;50.922;4.760;2022-11-20T14:25:21;3.57;;;3.10;;
20671;SDS011;10495;50.922;4.760;2022-11-20T14:27:52;10.17;;;3.77;;
20671;SDS011;10495;50.922;4.760;2022-11-20T14:30:26;4.90;;;3.60;;
20671;SDS011;10495;50.922;4.760;2022-11-20T14:33:01;4.73;;;3.20;;
20671;SDS011;10495;50.922;4.760;2022-11-20T14:35:29;4.67;;;3.17;;
20671;SDS011;10495;50.922;4.760;2022-11-20T14:37:59;4.57;;;2.70;;
20671;SDS011;10495;50.922;4.760;2022-11-20T14:40:31;4.57;;;2.73;;
20671;SDS011;10495;50.922;4.760;2022-11-20T14:43:00;4.67;;;2.23;;
20671;SDS011;10495;50.922;4.760;2022-11-20T14:45:27;5.50;;;3.27;;
20671;SDS011;10495;50.922;4.760;2022-11-20T14:47:53;3.77;;;2.40;;
20671;SDS011;10495;50.922;4.760;2022-11-20T14:50:25;6.57;;;2.20;;
20671;SDS011;10495;50.922;4.760;2022-11-20T14:52:57;4.73;;;3.13;;
20671;SDS011;10495;50.922;4.760;2022-11-20T14:55:28;7.63;;;3.17;;
20671;SDS011;10495;50.922;4.760;2022-11-20T14:57:55;4.27;;;2.60;;
20671;SDS011;10495;50.922;4.760;2022-11-20T15:00:23;3.50;;;2.63;;
20671;SDS011;10495;50.922;4.760;2022-11-20T15:02:50;3.40;;;2.30;;
20671;SDS011;10495;50.922;4.760;2022-11-20T15:05:17;4.23;;;2.47;;
20671;SDS011;10495;50.922;4.760;2022-11-20T15:07:46;3.57;;;2.47;;
20671;SDS011;10495;50.922;4.760;2022-11-20T15:12:51;2.63;;;2.10;;
20671;SDS011;10495;50.922;4.760;2022-11-20T15:15:20;3.27;;;2.37;;
20671;SDS011;10495;50.922;4.760;2022-11-20T15:17:50;3.17;;;2.47;;
20671;SDS011;10495;50.922;4.760;2022-11-20T15:20:16;2.87;;;2.40;;
20671;SDS011;10495;50.922;4.760;2022-11-20T15:22:43;3.30;;;2.57;;
20671;SDS011;10495;50.922;4.760;2022-11-20T15:25:15;2.70;;;2.33;;
20671;SDS011;10495;50.922;4.760;2022-11-20T15:27:42;2.97;;;2.47;;
20671;SDS011;10495;50.922;4.760;2022-11-20T15:30:13;2.63;;;2.10;;
20671;SDS011;10495;50.922;4.760;2022-11-20T15:32:41;4.07;;;2.60;;
20671;SDS011;10495;50.922;4.760;2022-11-20T15:35:07;3.97;;;2.87;;
20671;SDS011;10495;50.922;4.760;2022-11-20T15:37:34;3.53;;;2.67;;
20671;SDS011;10495;50.922;4.760;2022-11-20T15:40:00;4.23;;;3.13;;
20671;SDS011;10495;50.922;4.760;2022-11-20T15:42:25;3.50;;;3.17;;
20671;SDS011;10495;50.922;4.760;2022-11-20T15:44:51;4.73;;;3.40;;
20671;SDS011;10495;50.922;4.760;2022-11-20T15:47:17;3.93;;;3.40;;
20671;SDS011;10495;50.922;4.760;2022-11-20T15:49:43;7.07;;;4.40;;
20671;SDS011;10495;50.922;4.760;2022-11-20T15:52:09;6.97;;;4.33;;
20671;SDS011;10495;50.922;4.760;2022-11-20T15:54:35;6.47;;;4.80;;
20671;SDS011;10495;50.922;4.760;2022-11-20T15:57:01;9.47;;;6.30;;
20671;SDS011;10495;50.922;4.760;2022-11-20T15:59:27;11.67;;;6.10;;
20671;SDS011;10495;50.922;4.760;2022-11-20T16:01:53;8.70;;;4.93;;
20671;SDS011;10495;50.922;4.760;2022-11-20T16:04:18;6.90;;;5.43;;
20671;SDS011;10495;50.922;4.760;2022-11-20T16:06:44;10.13;;;6.27;;
20671;SDS011;10495;50.922;4.760;2022-11-20T16:09:10;9.87;;;5.33;;